Terminal Aerodrome Forecast
Issued by NWS Twin Cities, MN

Home | Current Version | Previous Version | Text Only | Print | Product List | Glossary Off
Versions: 1 2 3 4 5 6 7 8 9 10 11 12 13 14 15 16 17 18 19 20 21 22 23 24 25 26

000
FTUS43 KMPX 062035 AAA
TAFMSP
TAF AMD
KMSP 062035Z 0621/0724 25018G27KT P6SM -SN OVC030
     FM070000 26015G24KT P6SM OVC035
     FM071200 27015KT P6SM BKN040=

USA.gov is the U.S. government's official web portal to all federal, state and local government web resources and services.